Kinsman, Ohio
Current Conditions -  °F | °C
As of 11:51 PM on Saturday 25 Oct 2014 (Local Time) from KYNG Reporting Station
Clear Clear  
Wind Chill: 56°   Ceiling: Unl
Heat Index: 56°   Visibility: 10mi
Dew Point: 34°   Wind: 13mph
Humidity: 44%   Direction: 300°WNW
Pressure: 29.78"   Gusts: 21mph
Location:  41.44°N, 80.59°W
Report Text: KYNG 260351Z 30011G18KT 10SM CLR 13/01 A2978 RMK AO2 SLP082 T01330011 $
Loading
Personal Weather Stations






























Interactive Weather Map
Tropical Storm Tracking
New forecast layout! Learn more

10-Day Weather Forecast

Advertisements
Track Severe Weather on mobile